Rhourd El Adra — 7TBS — position and weather

sailwx.info

Track history (hours):
 
Tides and Currents Weather Stations Pressure Air Temp Water Temp Dewpoint Dewpoint Depression Visibility Wind Speed Wind Dir Waves Ship Positions

Rhourd El Adra

Last reported at 2017-Jan-08 12:09 UTC. Time now 2017-Jan-17 23:35 UTC.
Position N 43°11' E 009°09'.
Warning: this ship's position is 9 days out of date.

Length 156 m; draft 6.9 m.

Type: Ship (hazmat cat C). MMSI: 605026210.

Date/timePositionNaut miles runAvg speedWind from/ knotsBaromVisibWave heightAir tempDewpointWater temp
2017-Jan-08 12:09N 43°11' E 009°09'915.1
2017-Jan-08 11:32N 43°13' E 009°22'1414.9
2017-Jan-08 10:34N 43°15' E 009°41'1514.9
2017-Jan-08 09:33N 43°19' E 010°01'1413.8
2017-Jan-08 08:33N 43°31' E 010°11'7 6.7
2017-Jan-08 07:33N 43°34' E 010°19'1 0.5
2017-Jan-08 06:32N 43°35' E 010°19'0 0.0
2017-Jan-08 05:32N 43°35' E 010°19'0 0.0
2017-Jan-08 04:26N 43°35' E 010°19'0 0.0
2017-Jan-08 03:32N 43°35' E 010°19'0 0.0
2017-Jan-08 02:32N 43°35' E 010°19'0 0.0
2017-Jan-08 01:32N 43°35' E 010°19'0 0.0
2017-Jan-08 00:32N 43°35' E 010°19'0 0.0
2017-Jan-07 23:29N 43°35' E 010°19'0 0.0
2017-Jan-07 22:32N 43°35' E 010°19'0 0.0
2017-Jan-07 21:29N 43°35' E 010°19'0 0.0
2017-Jan-07 20:32N 43°35' E 010°19'0 0.0
2017-Jan-07 19:32N 43°35' E 010°19'0 0.0
2017-Jan-07 18:32N 43°35' E 010°19'0 0.0
2017-Jan-07 17:29N 43°35' E 010°19'0 0.0
2017-Jan-07 16:32N 43°35' E 010°19'0 0.0
2017-Jan-07 15:29N 43°35' E 010°19'0 0.0
2017-Jan-07 14:32N 43°35' E 010°19'0 0.0
2017-Jan-07 13:32N 43°35' E 010°19'0 0.0
2017-Jan-07 12:32N 43°35' E 010°19'0 0.0
2017-Jan-07 11:32N 43°35' E 010°19'0 0.0
2017-Jan-07 10:32N 43°35' E 010°19'0 0.0
2017-Jan-07 09:32N 43°35' E 010°19'0 0.0
2017-Jan-07 08:32N 43°35' E 010°19'0 0.0
2017-Jan-07 07:29N 43°35' E 010°19'0 0.0
2017-Jan-07 06:32N 43°35' E 010°19'0 0.0
2017-Jan-07 05:32N 43°35' E 010°19'0 0.0
2017-Jan-07 04:29N 43°35' E 010°19'0 0.0
2017-Jan-07 03:32N 43°35' E 010°19'0 0.0
2017-Jan-07 02:32N 43°35' E 010°19'0 0.0
2017-Jan-07 01:32N 43°35' E 010°19'0 0.0
2017-Jan-07 00:32N 43°35' E 010°19'0 0.0
2017-Jan-06 23:29N 43°35' E 010°19'0 0.0
2017-Jan-06 22:32N 43°35' E 010°19'0 0.0
2017-Jan-06 21:32N 43°35' E 010°19'0 0.0
2017-Jan-06 20:32N 43°35' E 010°19'0 0.0
2017-Jan-06 19:32N 43°35' E 010°19'0 0.0
2017-Jan-06 18:32N 43°35' E 010°19'0 0.0
2017-Jan-06 17:32N 43°35' E 010°19'0 0.0
2017-Jan-06 16:32N 43°35' E 010°19'0 0.0
2017-Jan-06 15:29N 43°35' E 010°19'0 0.0
2017-Jan-06 14:32N 43°35' E 010°19'0 0.0
2017-Jan-06 13:32N 43°35' E 010°19'0 0.0
2017-Jan-06 12:32N 43°35' E 010°19'0 0.0
2017-Jan-06 11:28N 43°35' E 010°19'0 0.0
2017-Jan-06 10:31N 43°35' E 010°19'0 0.0
2017-Jan-06 09:31N 43°35' E 010°19'0 0.0
2017-Jan-06 08:31N 43°35' E 010°19'1 0.5
2017-Jan-06 07:34N 43°34' E 010°19'6 6.1
2017-Jan-06 06:33N 43°29' E 010°14'3 2.6
2017-Jan-06 05:32N 43°27' E 010°17'0 0.0
2017-Jan-06 04:32N 43°27' E 010°17'0 0.0
2017-Jan-06 03:32N 43°27' E 010°17'0 0.0
2017-Jan-06 02:32N 43°27' E 010°17'0 0.0
2017-Jan-06 01:32N 43°27' E 010°17'0 0.0
2017-Jan-06 00:32N 43°27' E 010°17'0 0.0
2017-Jan-05 23:32N 43°27' E 010°17'0 0.0
2017-Jan-05 22:32N 43°27' E 010°17'0 0.1
2017-Jan-05 21:32N 43°27' E 010°17'0 0.0
2017-Jan-05 20:32N 43°27' E 010°17'0 0.0
2017-Jan-05 19:32N 43°27' E 010°17'0 0.1
2017-Jan-05 18:32N 43°27' E 010°17'0 0.1
2017-Jan-05 17:32N 43°27' E 010°17'4 3.7
2017-Jan-05 16:33N 43°28' E 010°12'1211.7
2017-Jan-05 15:33N 43°19' E 010°02'1312.8
2017-Jan-05 14:33N 43°16' E 009°45'1312.8
2017-Jan-05 13:33N 43°13' E 009°27'1312.2
2017-Jan-05 12:29N 43°12' E 009°10'61412.5
2017-Jan-03 11:33N 35°56' W 000°11'  
Track history (hours):
 
Tides and Currents Weather Stations Pressure Air Temp Water Temp Dewpoint Dewpoint Depression Visibility Wind Speed Wind Dir Waves Ship Positions

Rhourd El Adra

Last reported at 2017-Jan-08 12:09 UTC. Time now 2017-Jan-17 23:35 UTC.
Position N 43°11' E 009°09'.
Warning: this ship's position is 9 days out of date.

Length 156 m; draft 6.9 m.

Type: Ship (hazmat cat C). MMSI: 605026210.

Date/timePositionNaut miles runAvg speedWind from/ knotsBaromVisibWave heightAir tempDewpointWater temp
2017-Jan-08 12:09N 43°11' E 009°09'915.1
2017-Jan-08 11:32N 43°13' E 009°22'1414.9
2017-Jan-08 10:34N 43°15' E 009°41'1514.9
2017-Jan-08 09:33N 43°19' E 010°01'1413.8
2017-Jan-08 08:33N 43°31' E 010°11'7 6.7
2017-Jan-08 07:33N 43°34' E 010°19'1 0.5
2017-Jan-08 06:32N 43°35' E 010°19'0 0.0
2017-Jan-08 05:32N 43°35' E 010°19'0 0.0
2017-Jan-08 04:26N 43°35' E 010°19'0 0.0
2017-Jan-08 03:32N 43°35' E 010°19'0 0.0
2017-Jan-08 02:32N 43°35' E 010°19'0 0.0
2017-Jan-08 01:32N 43°35' E 010°19'0 0.0
2017-Jan-08 00:32N 43°35' E 010°19'0 0.0
2017-Jan-07 23:29N 43°35' E 010°19'0 0.0
2017-Jan-07 22:32N 43°35' E 010°19'0 0.0
2017-Jan-07 21:29N 43°35' E 010°19'0 0.0
2017-Jan-07 20:32N 43°35' E 010°19'0 0.0
2017-Jan-07 19:32N 43°35' E 010°19'0 0.0
2017-Jan-07 18:32N 43°35' E 010°19'0 0.0
2017-Jan-07 17:29N 43°35' E 010°19'0 0.0
2017-Jan-07 16:32N 43°35' E 010°19'0 0.0
2017-Jan-07 15:29N 43°35' E 010°19'0 0.0
2017-Jan-07 14:32N 43°35' E 010°19'0 0.0
2017-Jan-07 13:32N 43°35' E 010°19'0 0.0
2017-Jan-07 12:32N 43°35' E 010°19'0 0.0
2017-Jan-07 11:32N 43°35' E 010°19'0 0.0
2017-Jan-07 10:32N 43°35' E 010°19'0 0.0
2017-Jan-07 09:32N 43°35' E 010°19'0 0.0
2017-Jan-07 08:32N 43°35' E 010°19'0 0.0
2017-Jan-07 07:29N 43°35' E 010°19'0 0.0
2017-Jan-07 06:32N 43°35' E 010°19'0 0.0
2017-Jan-07 05:32N 43°35' E 010°19'0 0.0
2017-Jan-07 04:29N 43°35' E 010°19'0 0.0
2017-Jan-07 03:32N 43°35' E 010°19'0 0.0
2017-Jan-07 02:32N 43°35' E 010°19'0 0.0
2017-Jan-07 01:32N 43°35' E 010°19'0 0.0
2017-Jan-07 00:32N 43°35' E 010°19'0 0.0
2017-Jan-06 23:29N 43°35' E 010°19'0 0.0
2017-Jan-06 22:32N 43°35' E 010°19'0 0.0
2017-Jan-06 21:32N 43°35' E 010°19'0 0.0
2017-Jan-06 20:32N 43°35' E 010°19'0 0.0
2017-Jan-06 19:32N 43°35' E 010°19'0 0.0
2017-Jan-06 18:32N 43°35' E 010°19'0 0.0
2017-Jan-06 17:32N 43°35' E 010°19'0 0.0
2017-Jan-06 16:32N 43°35' E 010°19'0 0.0
2017-Jan-06 15:29N 43°35' E 010°19'0 0.0
2017-Jan-06 14:32N 43°35' E 010°19'0 0.0
2017-Jan-06 13:32N 43°35' E 010°19'0 0.0
2017-Jan-06 12:32N 43°35' E 010°19'0 0.0
2017-Jan-06 11:28N 43°35' E 010°19'0 0.0
2017-Jan-06 10:31N 43°35' E 010°19'0 0.0
2017-Jan-06 09:31N 43°35' E 010°19'0 0.0
2017-Jan-06 08:31N 43°35' E 010°19'1 0.5
2017-Jan-06 07:34N 43°34' E 010°19'6 6.1
2017-Jan-06 06:33N 43°29' E 010°14'3 2.6
2017-Jan-06 05:32N 43°27' E 010°17'0 0.0
2017-Jan-06 04:32N 43°27' E 010°17'0 0.0
2017-Jan-06 03:32N 43°27' E 010°17'0 0.0
2017-Jan-06 02:32N 43°27' E 010°17'0 0.0
2017-Jan-06 01:32N 43°27' E 010°17'0 0.0
2017-Jan-06 00:32N 43°27' E 010°17'0 0.0
2017-Jan-05 23:32N 43°27' E 010°17'0 0.0
2017-Jan-05 22:32N 43°27' E 010°17'0 0.1
2017-Jan-05 21:32N 43°27' E 010°17'0 0.0
2017-Jan-05 20:32N 43°27' E 010°17'0 0.0
2017-Jan-05 19:32N 43°27' E 010°17'0 0.1
2017-Jan-05 18:32N 43°27' E 010°17'0 0.1
2017-Jan-05 17:32N 43°27' E 010°17'4 3.7
2017-Jan-05 16:33N 43°28' E 010°12'1211.7
2017-Jan-05 15:33N 43°19' E 010°02'1312.8
2017-Jan-05 14:33N 43°16' E 009°45'1312.8
2017-Jan-05 13:33N 43°13' E 009°27'1312.2
2017-Jan-05 12:29N 43°12' E 009°10'61412.5
2017-Jan-03 11:33N 35°56' W 000°11'  

Dump ship's entire track history